Time;durP1;ratioP1;P1;durP2;ratioP2;P2;SDS_P1;SDS_P2;PMS_P1;PMS_P2;Temp;Humidity;BMP_temperature;BMP_pressure;BME280_temperature;BME280_humidity;BME280_pressure;Samples;Min_cycle;Max_cycle;Signal;HPM_P1;HPM_P2
2023/05/02 00:00:14;;;;;;;6.93;6.32;;;15.70;68.70;;;;;;5096723;28;20016;-78
2023/05/02 00:02:40;;;;;;;7.60;7.00;;;15.70;69.10;;;;;;5100746;28;20023;-78
2023/05/02 00:05:06;;;;;;;7.00;6.35;;;15.70;69.50;;;;;;5096137;28;20416;-78
2023/05/02 00:07:32;;;;;;;6.45;5.85;;;15.70;69.20;;;;;;5096354;28;20028;-80
2023/05/02 00:10:02;;;;;;;7.40;6.72;;;15.70;69.20;;;;;;5095974;28;20031;-78
2023/05/02 00:12:28;;;;;;;6.53;6.05;;;15.70;69.50;;;;;;5095699;28;20359;-78
2023/05/02 00:14:53;;;;;;;6.80;6.13;;;15.70;69.80;;;;;;5095002;28;20035;-77
2023/05/02 00:17:19;;;;;;;8.80;6.65;;;15.60;69.80;;;;;;5096268;28;20024;-78
2023/05/02 00:19:46;;;;;;;6.97;6.43;;;15.60;70.10;;;;;;5097463;28;20036;-78
2023/05/02 00:22:12;;;;;;;8.18;7.25;;;15.60;70.60;;;;;;5115624;28;20066;-77
2023/05/02 00:24:37;;;;;;;7.10;6.40;;;15.60;70.80;;;;;;5096962;28;20070;-79
2023/05/02 00:27:03;;;;;;;7.85;7.10;;;15.50;70.70;;;;;;5097384;28;20020;-77
2023/05/02 00:29:29;;;;;;;7.22;6.57;;;15.50;71.00;;;;;;5094858;28;20032;-78
2023/05/02 00:31:56;;;;;;;6.57;6.00;;;15.50;71.30;;;;;;5115935;28;20015;-78
2023/05/02 00:34:23;;;;;;;7.35;6.65;;;15.50;71.30;;;;;;5107798;28;20018;-78
2023/05/02 00:36:49;;;;;;;6.68;6.15;;;15.40;71.60;;;;;;5095843;28;20020;-78
2023/05/02 00:39:15;;;;;;;7.93;6.82;;;15.30;71.80;;;;;;5095753;28;20028;-78
2023/05/02 00:41:41;;;;;;;8.07;6.22;;;15.30;72.50;;;;;;5094264;28;20051;-78
2023/05/02 00:44:07;;;;;;;7.10;6.40;;;15.20;72.30;;;;;;5097744;28;20058;-79
2023/05/02 00:46:33;;;;;;;6.13;5.53;;;15.20;72.70;;;;;;5097594;28;20036;-80
2023/05/02 00:49:00;;;;;;;6.72;6.13;;;15.20;72.80;;;;;;5108271;28;20463;-79
2023/05/02 00:51:26;;;;;;;7.50;6.82;;;15.20;73.30;;;;;;5110048;28;20454;-77
2023/05/02 00:53:52;;;;;;;6.68;6.07;;;15.20;73.00;;;;;;5097254;28;20027;-78
2023/05/02 00:56:18;;;;;;;6.93;6.32;;;15.20;74.60;;;;;;5116211;28;20034;-79
2023/05/02 00:58:45;;;;;;;7.22;6.38;;;15.20;73.50;;;;;;5094023;28;20032;-78
2023/05/02 01:01:48;;;;;;;7.43;5.88;;;15.20;73.90;;;;;;5111477;28;20327;-79
2023/05/02 01:04:44;;;;;;;8.48;6.75;;;15.20;74.10;;;;;;5102729;28;20031;-79
2023/05/02 01:07:53;;;;;;;7.30;6.80;;;15.10;74.60;;;;;;5111271;28;20026;-80
2023/05/02 01:10:46;;;;;;;6.43;5.93;;;15.10;74.90;;;;;;5094722;28;20488;-80
2023/05/02 01:13:35;;;;;;;7.85;6.50;;;15.10;75.20;;;;;;5114141;28;20015;-80
2023/05/02 01:16:03;;;;;;;6.78;6.18;;;15.00;75.30;;;;;;5093485;28;20036;-80
2023/05/02 01:18:37;;;;;;;6.65;6.15;;;15.00;75.70;;;;;;5110617;28;20016;-77
2023/05/02 01:21:07;;;;;;;6.13;5.65;;;15.00;75.90;;;;;;5113869;28;20019;-77
2023/05/02 01:23:56;;;;;;;6.82;6.32;;;15.00;76.00;;;;;;5096180;28;20027;-77
2023/05/02 01:26:39;;;;;;;6.38;5.78;;;15.00;76.70;;;;;;5114521;28;20034;-77
2023/05/02 01:29:07;;;;;;;6.88;5.88;;;15.00;76.80;;;;;;5090542;28;20024;-79
2023/05/02 01:31:40;;;;;;;6.72;6.05;;;15.00;77.10;;;;;;5113633;28;20031;-77
2023/05/02 01:34:09;;;;;;;6.55;6.05;;;14.90;77.30;;;;;;5114863;28;20011;-76
2023/05/02 01:36:38;;;;;;;6.75;6.25;;;15.00;78.00;;;;;;5114556;28;20059;-78
2023/05/02 01:39:06;;;;;;;6.88;6.38;;;14.90;78.30;;;;;;5094181;28;20035;-78
2023/05/02 01:41:34;;;;;;;6.13;5.70;;;14.90;78.60;;;;;;5114142;28;20023;-79
2023/05/02 01:44:01;;;;;;;7.75;7.05;;;14.90;79.10;;;;;;5114185;28;20054;-79
2023/05/02 01:46:32;;;;;;;6.75;6.22;;;14.80;79.30;;;;;;5114277;28;20067;-78
2023/05/02 01:49:01;;;;;;;6.38;5.93;;;14.90;80.10;;;;;;5114333;28;20088;-78
2023/05/02 01:51:31;;;;;;;6.13;5.72;;;14.90;80.20;;;;;;5106579;28;20042;-78
2023/05/02 01:54:09;;;;;;;5.90;5.40;;;14.90;81.10;;;;;;5096145;28;20019;-78
2023/05/02 01:56:38;;;;;;;5.70;5.30;;;14.90;81.30;;;;;;5110566;28;20042;-77
2023/05/02 01:59:17;;;;;;;6.03;5.53;;;14.90;82.10;;;;;;5095261;28;20027;-78
2023/05/02 02:01:44;;;;;;;5.57;5.07;;;14.80;82.30;;;;;;5095872;28;20046;-78
2023/05/02 02:04:13;;;;;;;5.78;5.03;;;14.80;83.20;;;;;;5092424;28;20405;-79
2023/05/02 02:06:44;;;;;;;5.38;4.97;;;14.80;84.00;;;;;;5095920;28;20031;-79
2023/05/02 02:09:10;;;;;;;5.28;4.88;;;14.80;84.40;;;;;;5107643;28;20031;-79
2023/05/02 02:11:45;;;;;;;5.95;5.45;;;14.80;85.20;;;;;;5108761;28;20027;-77
2023/05/02 02:14:37;;;;;;;6.05;5.60;;;14.80;86.30;;;;;;5092895;28;20020;-78
2023/05/02 02:17:11;;;;;;;5.55;5.15;;;14.80;87.70;;;;;;5110593;28;20507;-76
2023/05/02 02:19:39;;;;;;;6.10;5.70;;;14.80;88.30;;;;;;5095218;28;20066;-78
2023/05/02 02:22:07;;;;;;;6.50;5.70;;;14.80;89.00;;;;;;5095436;28;20031;-80
2023/05/02 02:24:36;;;;;;;5.80;5.40;;;14.80;90.30;;;;;;5110208;28;20048;-80
2023/05/02 02:27:02;;;;;;;6.55;6.05;;;14.80;90.50;;;;;;5111853;28;20071;-78
2023/05/02 02:29:28;;;;;;;6.80;6.20;;;14.80;90.90;;;;;;5109073;28;20107;-79
2023/05/02 02:31:54;;;;;;;6.10;5.55;;;14.80;91.10;;;;;;5093404;28;20460;-80
2023/05/02 02:34:20;;;;;;;6.30;5.75;;;14.70;91.10;;;;;;5095358;28;20019;-80
2023/05/02 02:37:08;;;;;;;7.25;6.63;;;14.70;91.40;;;;;;5112774;28;20026;-82
2023/05/02 02:39:52;;;;;;;6.35;5.85;;;14.70;91.80;;;;;;5094861;28;20020;-78
2023/05/02 02:42:47;;;;;;;7.25;6.57;;;14.70;91.80;;;;;;5099206;28;20084;-80
2023/05/02 02:45:22;;;;;;;7.03;6.43;;;14.70;92.20;;;;;;5082071;28;20035;-80
2023/05/02 02:48:07;;;;;;;6.25;5.75;;;14.70;92.40;;;;;;5118386;28;20024;-79
2023/05/02 02:50:49;;;;;;;6.20;5.60;;;14.70;92.50;;;;;;5101083;28;20024;-81
2023/05/02 02:53:19;;;;;;;6.10;5.65;;;14.80;93.10;;;;;;5097301;28;20366;-81
2023/05/02 02:55:54;;;;;;;6.15;5.60;;;14.70;93.20;;;;;;5097658;28;20512;-81
2023/05/02 02:58:46;;;;;;;6.20;5.60;;;14.70;93.60;;;;;;5099766;28;20026;-83
2023/05/02 03:01:18;;;;;;;;;;;14.80;94.10;;;;;;5105803;28;20024;-80
2023/05/02 03:03:46;;;;;;;5.93;5.43;;;14.70;94.30;;;;;;5096356;28;19915;-80
2023/05/02 03:06:12;;;;;;;5.88;5.38;;;14.60;94.60;;;;;;5097547;28;20035;-79
2023/05/02 03:08:42;;;;;;;5.80;5.30;;;14.60;95.70;;;;;;5096956;28;20028;-79
2023/05/02 03:11:08;;;;;;;7.15;5.95;;;14.60;96.00;;;;;;5080832;28;20462;-80
2023/05/02 03:13:35;;;;;;;6.78;6.10;;;14.70;96.00;;;;;;5099024;28;20032;-79
2023/05/02 03:16:35;;;;;;;6.45;5.10;;;14.60;96.00;;;;;;5098725;28;20039;-80
2023/05/02 03:19:02;;;;;;;6.20;5.70;;;14.60;96.20;;;;;;5115563;28;20028;-79
2023/05/02 03:21:30;;;;;;;6.10;5.60;;;14.60;96.90;;;;;;5098588;28;20035;-81
2023/05/02 03:23:58;;;;;;;5.30;4.90;;;14.60;96.90;;;;;;5098589;28;20035;-80
2023/05/02 03:26:24;;;;;;;7.55;5.50;;;14.70;97.10;;;;;;5115303;28;20023;-80
2023/05/02 03:28:50;;;;;;;5.72;5.22;;;14.70;97.40;;;;;;5110041;28;20028;-80
2023/05/02 03:31:16;;;;;;;5.28;4.78;;;14.70;97.00;;;;;;5113798;28;20069;-76
2023/05/02 03:33:42;;;;;;;5.53;5.10;;;14.70;97.90;;;;;;5098633;28;20042;-78
2023/05/02 03:36:08;;;;;;;6.45;5.85;;;14.70;97.60;;;;;;5098341;28;20445;-77
2023/05/02 03:38:34;;;;;;;6.18;5.57;;;14.70;97.90;;;;;;5116310;28;20092;-77
2023/05/02 03:40:59;;;;;;;7.72;5.80;;;14.60;98.50;;;;;;5111103;28;20413;-77
2023/05/02 03:43:25;;;;;;;5.95;5.45;;;14.70;98.70;;;;;;5109565;28;20015;-78
2023/05/02 03:45:51;;;;;;;5.47;5.07;;;14.70;99.10;;;;;;5098414;28;20038;-76
2023/05/02 03:48:17;;;;;;;6.10;5.60;;;14.70;98.80;;;;;;5116260;28;20027;-78
2023/05/02 03:50:42;;;;;;;6.30;5.80;;;14.70;99.00;;;;;;5116261;28;20080;-78
2023/05/02 03:53:09;;;;;;;6.18;5.65;;;14.70;99.40;;;;;;5115951;28;20016;-78
2023/05/02 03:55:44;;;;;;;5.60;5.10;;;14.70;99.40;;;;;;5098246;28;20027;-78
2023/05/02 03:58:10;;;;;;;6.07;5.30;;;14.80;99.60;;;;;;5096919;28;20028;-78
2023/05/02 04:00:37;;;;;;;5.93;5.43;;;14.80;99.30;;;;;;5109792;28;20015;-76
2023/05/02 04:03:03;;;;;;;7.18;5.45;;;14.80;99.80;;;;;;5093731;28;20031;-77
2023/05/02 04:05:29;;;;;;;5.72;5.32;;;14.90;99.30;;;;;;5116171;28;20027;-78
2023/05/02 04:07:56;;;;;;;5.78;5.28;;;14.90;99.70;;;;;;5098178;28;20042;-79
2023/05/02 04:10:21;;;;;;;5.20;4.80;;;15.00;99.60;;;;;;5108165;28;20362;-79
2023/05/02 04:12:48;;;;;;;6.18;5.43;;;15.10;99.30;;;;;;5115704;28;20024;-78
2023/05/02 04:15:14;;;;;;;5.55;5.05;;;15.10;99.00;;;;;;5097770;28;20087;-78
2023/05/02 04:17:39;;;;;;;6.80;6.10;;;15.10;99.20;;;;;;5097356;28;20514;-77
2023/05/02 04:20:06;;;;;;;5.88;5.35;;;15.10;99.10;;;;;;5116058;28;20020;-77
2023/05/02 04:22:32;;;;;;;5.38;4.85;;;15.10;99.30;;;;;;5115793;28;20015;-77
2023/05/02 04:24:58;;;;;;;5.90;5.40;;;15.20;99.00;;;;;;5114814;28;20079;-76
2023/05/02 04:27:24;;;;;;;5.38;4.88;;;15.30;98.70;;;;;;5097350;28;20072;-77
2023/05/02 04:29:51;;;;;;;6.93;5.05;;;15.30;99.20;;;;;;5097488;28;20369;-79
2023/05/02 04:32:17;;;;;;;5.47;5.07;;;15.30;98.40;;;;;;5114145;28;20027;-78
2023/05/02 04:34:42;;;;;;;5.72;5.22;;;15.40;98.50;;;;;;5098025;28;20023;-78
2023/05/02 04:37:08;;;;;;;5.45;5.05;;;15.40;98.30;;;;;;5094671;28;20374;-77
2023/05/02 04:39:34;;;;;;;5.82;5.43;;;15.50;98.10;;;;;;5100481;28;20439;-78
2023/05/02 04:42:00;;;;;;;5.78;5.32;;;15.60;98.20;;;;;;5095620;28;20140;-78
2023/05/02 04:44:26;;;;;;;5.93;5.43;;;15.60;98.20;;;;;;5094360;28;20396;-77
2023/05/02 04:46:52;;;;;;;6.18;5.70;;;15.60;98.00;;;;;;5094020;28;20023;-79
2023/05/02 04:49:18;;;;;;;5.72;4.97;;;15.70;98.40;;;;;;5095673;28;20023;-77
2023/05/02 04:51:44;;;;;;;6.15;5.68;;;15.70;98.20;;;;;;5115120;28;20042;-79
2023/05/02 04:54:11;;;;;;;5.70;5.28;;;15.70;97.80;;;;;;5093976;28;20454;-78
2023/05/02 04:56:37;;;;;;;5.78;5.28;;;15.80;98.00;;;;;;5096140;28;20035;-80
2023/05/02 04:59:03;;;;;;;5.50;5.00;;;15.90;98.70;;;;;;5097230;28;20072;-79
2023/05/02 05:01:29;;;;;;;5.97;5.53;;;16.00;98.40;;;;;;5104526;28;20024;-80
2023/05/02 05:03:55;;;;;;;6.90;5.60;;;16.10;98.20;;;;;;5093932;28;20026;-81
2023/05/02 05:06:21;;;;;;;6.00;5.40;;;16.10;98.20;;;;;;5093086;28;20032;-79
2023/05/02 05:08:47;;;;;;;6.22;5.70;;;16.20;96.50;;;;;;5096794;28;20019;-79
2023/05/02 05:11:14;;;;;;;6.80;5.55;;;16.20;97.20;;;;;;5114592;28;20054;-80
2023/05/02 05:13:41;;;;;;;5.70;5.20;;;16.30;97.40;;;;;;5110660;28;20384;-80
2023/05/02 05:16:07;;;;;;;6.22;5.63;;;16.30;97.10;;;;;;5096899;28;20058;-81
2023/05/02 05:18:39;;;;;;;6.25;5.15;;;16.40;96.50;;;;;;5115424;28;20034;-79
2023/05/02 05:21:06;;;;;;;7.18;5.50;;;16.40;96.70;;;;;;5096428;28;20076;-80
2023/05/02 05:23:33;;;;;;;11.48;5.35;;;16.50;96.60;;;;;;5111679;28;20011;-82
2023/05/02 05:26:08;;;;;;;6.72;5.93;;;16.50;96.20;;;;;;5114148;28;20039;-81
2023/05/02 05:28:34;;;;;;;5.35;4.95;;;16.60;96.50;;;;;;5092928;28;20028;-81
2023/05/02 05:31:05;;;;;;;4.85;4.32;;;16.60;95.70;;;;;;5096104;28;20111;-81
2023/05/02 05:33:31;;;;;;;4.95;4.45;;;16.60;95.70;;;;;;5096466;28;20019;-80
2023/05/02 05:36:12;;;;;;;8.63;5.25;;;16.70;96.20;;;;;;5114509;28;20076;-81
2023/05/02 05:38:37;;;;;;;5.50;5.00;;;16.70;95.60;;;;;;5095285;28;20690;-84
2023/05/02 05:41:04;;;;;;;5.47;4.88;;;16.80;95.30;;;;;;5094003;28;20019;-81
2023/05/02 05:43:30;;;;;;;5.45;4.95;;;16.80;96.10;;;;;;5087369;28;20020;-81
2023/05/02 05:45:56;;;;;;;5.32;4.82;;;16.80;94.90;;;;;;5108162;28;20474;-81
2023/05/02 05:48:22;;;;;;;6.60;5.88;;;16.90;94.40;;;;;;5095474;28;20020;-81
2023/05/02 05:50:48;;;;;;;6.68;5.90;;;16.90;94.30;;;;;;5114619;28;20027;-79
2023/05/02 05:53:14;;;;;;;6.07;5.50;;;16.90;94.70;;;;;;5096365;28;20027;-80
2023/05/02 05:55:41;;;;;;;6.97;6.40;;;16.90;94.60;;;;;;5096209;28;20054;-82
2023/05/02 05:58:07;;;;;;;6.63;6.03;;;17.00;94.20;;;;;;5114330;28;20144;-82
2023/05/02 06:00:36;;;;;;;5.80;5.40;;;17.10;93.60;;;;;;5114011;28;20027;-81
2023/05/02 06:03:02;;;;;;;6.05;5.07;;;17.10;93.80;;;;;;5109915;28;20027;-83
2023/05/02 06:05:29;;;;;;;6.85;6.15;;;17.20;93.00;;;;;;5095742;28;20036;-84
2023/05/02 06:07:55;;;;;;;6.50;6.00;;;17.30;92.70;;;;;;5113813;28;20022;-80
2023/05/02 06:10:21;;;;;;;7.28;6.10;;;17.30;92.40;;;;;;5111884;28;20020;-81
2023/05/02 06:12:46;;;;;;;6.13;5.60;;;17.30;92.50;;;;;;5111744;28;20047;-82
2023/05/02 06:15:12;;;;;;;6.60;5.90;;;17.50;92.60;;;;;;5114158;28;20058;-84
2023/05/02 06:17:38;;;;;;;5.85;5.13;;;17.50;91.30;;;;;;5095368;28;20032;-83
2023/05/02 06:20:05;;;;;;;6.68;5.38;;;17.50;91.90;;;;;;5110038;28;20507;-81
2023/05/02 06:22:30;;;;;;;6.13;5.53;;;17.60;92.00;;;;;;5095528;28;20047;-83
2023/05/02 06:24:56;;;;;;;6.00;5.50;;;17.70;91.50;;;;;;5094465;28;20098;-82
2023/05/02 06:27:23;;;;;;;6.50;5.75;;;17.90;92.10;;;;;;5093494;28;20119;-84
2023/05/02 06:29:52;;;;;;;6.50;5.90;;;17.90;90.60;;;;;;5094809;28;20106;-80
2023/05/02 06:32:18;;;;;;;7.65;6.85;;;18.00;90.70;;;;;;5113716;28;20030;-80
2023/05/02 06:34:44;;;;;;;6.55;5.95;;;18.10;90.50;;;;;;5114043;28;20031;-82
2023/05/02 06:37:10;;;;;;;7.85;6.43;;;18.20;88.10;;;;;;5095617;28;20520;-85
2023/05/02 06:39:36;;;;;;;6.88;6.22;;;18.30;87.60;;;;;;5095874;28;20024;-83
2023/05/02 06:42:02;;;;;;;7.82;5.72;;;18.30;87.80;;;;;;5095995;28;20110;-82
2023/05/02 06:44:28;;;;;;;6.70;5.63;;;18.30;87.60;;;;;;5092020;28;20107;-83
2023/05/02 06:46:56;;;;;;;5.35;4.95;;;18.40;87.10;;;;;;5092579;28;20078;-81
2023/05/02 06:49:22;;;;;;;6.13;5.55;;;18.50;87.40;;;;;;5094978;28;20507;-81
2023/05/02 06:51:48;;;;;;;6.47;5.90;;;18.60;86.50;;;;;;5113455;28;20027;-83
2023/05/02 06:54:15;;;;;;;5.68;5.20;;;18.60;86.00;;;;;;5095153;28;20020;-84
2023/05/02 06:56:41;;;;;;;6.30;5.82;;;18.70;84.80;;;;;;5093226;28;20030;-82
2023/05/02 06:59:07;;;;;;;6.15;5.55;;;18.80;84.00;;;;;;5094663;28;20099;-82
2023/05/02 07:01:33;;;;;;;6.63;5.78;;;18.80;85.30;;;;;;5095206;28;20039;-83
2023/05/02 07:04:02;;;;;;;6.30;5.70;;;18.90;83.50;;;;;;5091552;28;20066;-82
2023/05/02 07:06:28;;;;;;;6.47;5.95;;;18.90;83.90;;;;;;5080927;28;20027;-83
2023/05/02 07:08:54;;;;;;;7.82;5.72;;;19.00;85.00;;;;;;5093654;28;20466;-84
2023/05/02 07:11:22;;;;;;;6.45;5.85;;;19.00;82.30;;;;;;5093185;28;20019;-85
2023/05/02 07:13:48;;;;;;;7.18;5.70;;;19.00;83.00;;;;;;5108150;28;20031;-81
2023/05/02 07:16:14;;;;;;;6.97;5.38;;;19.00;81.90;;;;;;5095030;28;20036;-83
2023/05/02 07:18:41;;;;;;;6.30;5.70;;;19.10;83.00;;;;;;5095133;28;20020;-82
2023/05/02 07:21:07;;;;;;;6.78;5.88;;;19.10;82.10;;;;;;5094402;28;20058;-80
2023/05/02 07:23:33;;;;;;;5.93;5.40;;;19.20;83.40;;;;;;5113847;28;20015;-83
2023/05/02 07:26:00;;;;;;;5.32;4.90;;;19.30;82.10;;;;;;5091322;28;20051;-82
2023/05/02 07:28:25;;;;;;;6.32;5.65;;;19.30;81.10;;;;;;5099195;28;20050;-83
2023/05/02 07:30:51;;;;;;;7.13;6.57;;;19.30;80.00;;;;;;5098204;28;20462;-83
2023/05/02 07:33:17;;;;;;;5.85;5.03;;;19.30;78.90;;;;;;5098889;28;20111;-83
2023/05/02 07:35:43;;;;;;;6.30;5.68;;;19.40;76.70;;;;;;5095784;28;20024;-80
2023/05/02 07:38:09;;;;;;;6.95;6.22;;;19.40;75.80;;;;;;5105900;28;20034;-82
2023/05/02 07:40:34;;;;;;;6.28;5.75;;;19.50;74.90;;;;;;5111033;28;20409;-84
2023/05/02 07:43:01;;;;;;;5.85;5.25;;;19.50;74.00;;;;;;5098005;28;20458;-82
2023/05/02 07:45:26;;;;;;;6.07;5.53;;;19.40;72.20;;;;;;5098344;28;20027;-85
2023/05/02 07:47:52;;;;;;;5.95;5.43;;;19.50;72.50;;;;;;5096374;28;20434;-85
2023/05/02 07:50:18;;;;;;;5.85;5.38;;;19.60;71.10;;;;;;5095367;28;20027;-83
2023/05/02 07:52:44;;;;;;;6.20;5.63;;;19.60;70.80;;;;;;5095821;28;20024;-84
2023/05/02 07:55:10;;;;;;;6.40;5.63;;;19.60;70.30;;;;;;5095106;28;20024;-82
2023/05/02 07:57:36;;;;;;;6.20;5.20;;;19.60;71.50;;;;;;5105530;28;20061;-82
2023/05/02 08:00:03;;;;;;;5.93;5.43;;;19.60;69.60;;;;;;5095425;28;20028;-82
2023/05/02 08:02:29;;;;;;;6.32;5.82;;;19.80;70.00;;;;;;5094524;28;20023;-81
2023/05/02 08:04:55;;;;;;;7.30;6.40;;;20.00;69.10;;;;;;5098198;28;20035;-84
2023/05/02 08:07:20;;;;;;;6.60;6.00;;;20.30;75.30;;;;;;5096965;28;20023;-83
2023/05/02 08:09:47;;;;;;;8.18;6.07;;;20.30;67.60;;;;;;5116299;28;20031;-84
2023/05/02 08:12:12;;;;;;;6.63;5.90;;;20.40;69.00;;;;;;5097684;28;20030;-82
2023/05/02 08:14:38;;;;;;;6.32;5.80;;;20.30;65.30;;;;;;5098406;28;20023;-81
2023/05/02 08:17:04;;;;;;;7.38;6.50;;;20.30;65.70;;;;;;5097711;28;20068;-81
2023/05/02 08:19:30;;;;;;;8.90;5.55;;;20.30;66.00;;;;;;5098060;28;20019;-84
2023/05/02 08:21:58;;;;;;;6.50;4.60;;;20.40;65.30;;;;;;5097588;28;20031;-81
2023/05/02 08:24:23;;;;;;;5.70;5.20;;;20.30;64.60;;;;;;5093625;28;20043;-81
2023/05/02 08:26:49;;;;;;;8.68;5.90;;;20.40;65.50;;;;;;5095680;28;20028;-83
2023/05/02 08:29:15;;;;;;;5.93;5.43;;;20.50;65.30;;;;;;5093423;28;20115;-80
2023/05/02 08:31:41;;;;;;;6.97;5.80;;;20.60;63.20;;;;;;5084198;28;20090;-83
2023/05/02 08:34:07;;;;;;;7.22;5.65;;;20.60;64.80;;;;;;5074452;28;20111;-80
2023/05/02 08:36:33;;;;;;;8.55;5.10;;;20.70;64.90;;;;;;5074013;28;20033;-81
2023/05/02 08:38:59;;;;;;;6.57;5.55;;;20.80;64.30;;;;;;5074164;28;20021;-83
2023/05/02 08:41:28;;;;;;;5.07;4.68;;;20.80;62.30;;;;;;5074437;28;20024;-82
2023/05/02 08:43:55;;;;;;;5.10;4.70;;;20.90;63.70;;;;;;5074195;28;20366;-80
2023/05/02 08:46:22;;;;;;;4.97;4.43;;;20.90;61.90;;;;;;5091452;28;20039;-81
2023/05/02 08:48:49;;;;;;;5.85;5.25;;;21.00;63.50;;;;;;5081636;28;20111;-81
2023/05/02 08:51:17;;;;;;;4.97;4.57;;;21.00;62.90;;;;;;5075007;28;20035;-83
2023/05/02 08:53:43;;;;;;;6.63;5.25;;;21.10;60.70;;;;;;5074052;28;20031;-82
2023/05/02 08:56:10;;;;;;;5.22;4.82;;;;;;;;;;5073865;28;20091;-82
2023/05/02 08:58:40;;;;;;;5.25;4.85;;;21.50;62.10;;;;;;5091986;28;20048;-82
2023/05/02 09:01:15;;;;;;;5.28;4.85;;;21.60;59.90;;;;;;5093877;28;20027;-82
2023/05/02 09:03:43;;;;;;;4.53;4.20;;;21.70;60.20;;;;;;5073969;28;20027;-82
2023/05/02 09:06:11;;;;;;;6.22;5.63;;;21.70;60.50;;;;;;5075089;28;20032;-81
2023/05/02 09:08:39;;;;;;;5.38;4.88;;;21.80;61.10;;;;;;5075301;28;20032;-82
2023/05/02 09:11:06;;;;;;;4.65;4.25;;;21.80;58.40;;;;;;5074773;28;20020;-83
2023/05/02 09:13:42;;;;;;;4.80;4.50;;;21.70;58.50;;;;;;5073671;28;20031;-83
2023/05/02 09:16:10;;;;;;;5.05;4.60;;;21.60;56.80;;;;;;5073656;28;20025;-82
2023/05/02 09:18:36;;;;;;;5.70;5.25;;;21.50;58.00;;;;;;5074514;28;20028;-82
2023/05/02 09:21:07;;;;;;;7.15;5.20;;;21.60;59.70;;;;;;5073958;28;20037;-82
2023/05/02 09:23:46;;;;;;;4.88;4.47;;;21.70;59.40;;;;;;5073477;28;20107;-81
2023/05/02 09:26:13;;;;;;;5.25;4.80;;;21.60;57.70;;;;;;5053285;28;20036;-81
2023/05/02 09:28:41;;;;;;;5.93;5.47;;;21.60;58.20;;;;;;5074415;28;20028;-81
2023/05/02 09:31:09;;;;;;;5.60;5.20;;;21.60;57.70;;;;;;5073229;28;20051;-83
2023/05/02 09:33:35;;;;;;;5.35;4.78;;;21.60;58.00;;;;;;5073175;28;20036;-82
2023/05/02 09:36:01;;;;;;;5.68;5.28;;;21.60;58.20;;;;;;5074514;28;20459;-83
2023/05/02 09:38:27;;;;;;;5.30;4.93;;;21.60;57.90;;;;;;5073152;28;20023;-81
2023/05/02 09:40:56;;;;;;;5.75;5.25;;;21.60;58.40;;;;;;5072646;28;20020;-83
2023/05/02 09:43:22;;;;;;;5.72;5.22;;;21.60;58.00;;;;;;5073015;28;20465;-81
2023/05/02 09:45:57;;;;;;;6.38;5.72;;;21.60;58.40;;;;;;5073982;28;20024;-83
2023/05/02 09:48:24;;;;;;;5.78;5.30;;;21.70;59.60;;;;;;5073112;28;20034;-82
2023/05/02 09:50:49;;;;;;;5.95;5.47;;;21.60;56.70;;;;;;5071963;28;20082;-83
2023/05/02 09:53:15;;;;;;;6.15;5.65;;;21.60;57.80;;;;;;5072400;28;20029;-81
2023/05/02 09:55:41;;;;;;;4.97;4.57;;;21.70;58.20;;;;;;5074221;28;20454;-80
2023/05/02 09:58:18;;;;;;;5.38;4.88;;;21.70;59.20;;;;;;5072814;28;20024;-83
2023/05/02 10:00:44;;;;;;;5.70;5.20;;;21.90;60.00;;;;;;5072564;28;20119;-80
2023/05/02 10:03:15;;;;;;;5.47;4.60;;;21.90;58.10;;;;;;5072079;28;20096;-81
2023/05/02 10:05:43;;;;;;;4.90;4.50;;;21.80;57.20;;;;;;5072882;28;20116;-82
2023/05/02 10:08:10;;;;;;;5.68;5.28;;;21.80;56.80;;;;;;5072443;28;20123;-81
2023/05/02 10:10:38;;;;;;;5.57;5.07;;;21.70;57.30;;;;;;5072334;28;20055;-81
2023/05/02 10:13:05;;;;;;;5.97;5.38;;;;;;;;;;5072695;28;20363;-85
2023/05/02 10:15:32;;;;;;;7.38;5.88;;;;;;;;;;5072257;28;20405;-82
2023/05/02 10:18:02;;;;;;;5.55;5.13;;;;;;;;;;5072611;28;20073;-82
2023/05/02 10:20:36;;;;;;;5.78;5.35;;;21.90;93.70;;;;;;5072490;28;20443;-80
2023/05/02 10:23:03;;;;;;;5.57;5.07;;;21.80;78.00;;;;;;5073422;28;20442;-80
2023/05/02 10:25:29;;;;;;;5.70;5.20;;;21.70;56.40;;;;;;5101517;28;20491;-81
2023/05/02 10:27:59;;;;;;;6.65;6.05;;;21.70;57.30;;;;;;5094144;28;20450;-81
2023/05/02 10:30:26;;;;;;;10.10;7.97;;;21.80;57.70;;;;;;5093924;28;20101;-80
2023/05/02 10:32:53;;;;;;;12.40;7.18;;;21.70;60.00;;;;;;5092703;28;20032;-81
2023/05/02 10:35:20;;;;;;;7.60;6.90;;;22.10;57.40;;;;;;5093549;28;20099;-81
2023/05/02 10:37:47;;;;;;;10.15;6.30;;;22.20;57.10;;;;;;5094026;28;20107;-80
2023/05/02 10:40:13;;;;;;;9.52;6.82;;;22.40;57.90;;;;;;5092636;28;20119;-81
2023/05/02 10:42:44;;;;;;;6.25;5.65;;;22.60;58.50;;;;;;5093540;28;20100;-83
2023/05/02 10:45:29;;;;;;;5.45;5.05;;;;;;;;;;5094070;28;20064;-82
2023/05/02 10:48:12;;;;;;;6.32;5.72;;;;;;;;;;5112186;28;20027;-82
2023/05/02 10:50:50;;;;;;;6.47;5.35;;;;;;;;;;5111190;28;20008;-82
2023/05/02 10:53:25;;;;;;;5.90;5.40;;;;;;;;;;5099933;28;20090;-83
2023/05/02 10:56:10;;;;;;;5.90;5.40;;;;;;;;;;5075346;28;20024;-83
2023/05/02 10:58:36;;;;;;;6.25;5.80;;;;;;;;;;5110750;28;20030;-82
2023/05/02 11:01:21;;;;;;;6.50;6.00;;;;;;;;;;5109518;28;20125;-81
2023/05/02 11:03:54;;;;;;;5.95;5.32;;;;;;;;;;5117694;28;20023;-82
2023/05/02 11:06:20;;;;;;;6.18;5.57;;;;;;;;;;5097671;28;20068;-82
2023/05/02 11:08:46;;;;;;;6.20;5.70;;;;;;;;;;5096568;28;20028;-81
2023/05/02 11:11:31;;;;;;;6.57;6.07;;;;;;;;;;5098485;28;20047;-82
2023/05/02 11:13:57;;;;;;;8.93;5.65;;;;;;;;;;5104836;28;20105;-79
2023/05/02 11:16:23;;;;;;;6.30;5.60;;;;;;;;;;5099107;28;20055;-81
2023/05/02 11:19:07;;;;;;;9.52;7.43;;;22.90;71.40;;;;;;5113021;28;20525;-80
2023/05/02 11:21:34;;;;;;;7.65;6.80;;;;;;;;;;5095999;28;20055;-76
2023/05/02 11:24:19;;;;;;;19.48;10.02;;;;;;;;;;5098081;28;20036;-80
2023/05/02 11:26:45;;;;;;;6.00;5.60;;;;;;;;;;5107775;28;20485;-78
2023/05/02 11:29:11;;;;;;;6.85;6.35;;;;;;;;;;5098097;28;20016;-79
2023/05/02 11:31:39;;;;;;;6.35;5.85;;;;;;;;;;5098180;28;20016;-79
2023/05/02 11:34:05;;;;;;;8.00;7.20;;;;;;;;;;5095804;28;20016;-82
2023/05/02 11:36:35;;;;;;;6.57;6.07;;;;;;;;;;5098252;28;20067;-79
2023/05/02 11:39:02;;;;;;;7.70;7.10;;;;;;;;;;5098321;28;20073;-77
2023/05/02 11:41:41;;;;;;;8.68;7.40;;;;;;;;;;5053951;28;20048;-78
2023/05/02 11:44:07;;;;;;;7.50;6.80;;;;;;;;;;5053641;28;20381;-83
2023/05/02 11:46:36;;;;;;;7.30;6.70;;;;;;;;;;5036980;28;20045;-81
2023/05/02 11:49:02;;;;;;;6.20;5.80;;;;;;;;;;5037501;28;20063;-79
2023/05/02 11:51:28;;;;;;;6.60;6.05;;;;;;;;;;5054201;28;20029;-79
2023/05/02 11:53:55;;;;;;;6.10;5.60;;;22.20;53.00;;;;;;5051109;28;20049;-78
2023/05/02 11:56:25;;;;;;;6.30;5.80;;;21.90;51.50;;;;;;5032063;28;20040;-80
2023/05/02 11:59:03;;;;;;;6.72;6.10;;;21.90;51.60;;;;;;5052338;28;20029;-79
2023/05/02 12:01:29;;;;;;;6.28;5.53;;;21.90;52.40;;;;;;5037356;28;20036;-79
2023/05/02 12:04:06;;;;;;;5.82;5.40;;;21.90;52.60;;;;;;5054017;28;20025;-81
2023/05/02 12:06:32;;;;;;;6.70;5.75;;;21.90;52.60;;;;;;5036787;28;20057;-80
2023/05/02 12:09:09;;;;;;;5.53;5.03;;;22.10;53.50;;;;;;5037372;28;20184;-78
2023/05/02 12:11:37;;;;;;;6.03;5.63;;;22.10;53.60;;;;;;5062770;28;20031;-79
2023/05/02 12:14:03;;;;;;;6.60;6.10;;;22.20;51.20;;;;;;5097607;28;20024;-80
2023/05/02 12:16:29;;;;;;;5.95;5.45;;;22.30;51.90;;;;;;5095074;28;20028;-78
2023/05/02 12:18:58;;;;;;;7.28;5.80;;;22.40;52.20;;;;;;5095012;28;20027;-78
2023/05/02 12:21:25;;;;;;;6.00;5.50;;;22.40;53.80;;;;;;5095928;28;20327;-81
2023/05/02 12:23:52;;;;;;;6.30;5.80;;;22.40;51.60;;;;;;5094504;28;20429;-78
2023/05/02 12:26:30;;;;;;;6.00;5.50;;;22.50;52.00;;;;;;5094879;28;20081;-79
2023/05/02 12:29:01;;;;;;;6.75;6.15;;;22.50;53.30;;;;;;5094374;28;20020;-80
2023/05/02 12:31:29;;;;;;;7.28;6.28;;;22.60;54.70;;;;;;5094836;28;20408;-80
2023/05/02 12:33:59;;;;;;;8.55;6.68;;;22.70;55.40;;;;;;5094318;28;20020;-82
2023/05/02 12:36:29;;;;;;;6.20;5.70;;;22.70;53.60;;;;;;5077694;28;20115;-81
2023/05/02 12:38:58;;;;;;;9.05;5.70;;;22.70;52.90;;;;;;5113351;28;20047;-79
2023/05/02 12:41:35;;;;;;;6.53;6.03;;;22.60;54.40;;;;;;5113147;28;20023;-79
2023/05/02 12:44:02;;;;;;;6.82;6.13;;;22.90;52.90;;;;;;5102769;28;20359;-78
2023/05/02 12:46:28;;;;;;;6.38;5.88;;;22.70;51.20;;;;;;5105062;28;20102;-80
2023/05/02 12:49:11;;;;;;;5.88;5.43;;;22.70;49.60;;;;;;5094124;28;20052;-78
2023/05/02 12:51:38;;;;;;;5.75;5.25;;;22.60;50.30;;;;;;5094395;28;20028;-81
2023/05/02 12:54:04;;;;;;;5.70;5.03;;;22.60;50.10;;;;;;5093638;28;20023;-79
2023/05/02 12:56:37;;;;;;;6.40;5.70;;;22.60;50.50;;;;;;5097873;28;20365;-80
2023/05/02 12:59:04;;;;;;;5.50;5.10;;;22.60;49.70;;;;;;5086188;28;20110;-79
2023/05/02 13:01:33;;;;;;;5.82;5.07;;;22.70;50.80;;;;;;5097191;28;20023;-80
2023/05/02 13:03:58;;;;;;;5.72;5.32;;;22.70;49.00;;;;;;5085021;28;20080;-79
2023/05/02 13:06:25;;;;;;;7.88;5.60;;;22.70;50.00;;;;;;5097376;28;20483;-79